Terminal Aerodrome Forecast
Issued by NWS

Home | Current Version | Previous Version | Graphics & Text | Print | Product List | Glossary On
Versions: 1 2 3 4 5 6 7 8 9 10 11 12 13 14 15 16 17 18 19
000
FTUS43 KFGF 190100 AAA
TAFBJI
TAF AMD
KBJI 190111Z 1901/1924 VRB04KT P6SM VCSH BKN035
      TEMPO 1901/1902 BKN021
     FM190200 33003KT P6SM BKN040
     FM190600 VRB03KT 5SM BR BKN035
      TEMPO 1909/1913 2SM BR BKN012
     FM191500 VRB06KT P6SM BKN025=

USA.gov is the U.S. government's official web portal to all federal, state and local government web resources and services.